Celebrity Century — 9HJI9 — position and weather

sailwx.info

Track history (hours):
 
Tides and Currents Weather Stations Pressure Air Temp Water Temp Dewpoint Dewpoint Depression Visibility Wind Speed Wind Dir Waves Ship Positions

Celebrity Century

Last reported at 2016-Aug-25 10:09 UTC. Time now 2016-Aug-26 03:15 UTC.
Position N 31°16' E 121°52'.

Length 252 m; draft 8 m.

Type: Ship. MMSI: 249054000.

Date/timePositionNaut miles runAvg speedWind from/ knotsBaromVisibWave heightAir tempDewpointWater temp
2016-Aug-25 10:09N 31°16' E 121°52'813.9
2016-Aug-25 09:32N 31°19' E 121°43'10 9.7
2016-Aug-25 08:33N 31°24' E 121°33'3 0.6
2016-Aug-25 03:30N 31°25' E 121°30'0 0.0
2016-Aug-25 02:24N 31°25' E 121°30'0 0.0
2016-Aug-25 01:33N 31°25' E 121°30'0 0.0
2016-Aug-25 00:28N 31°25' E 121°30'0 0.0
2016-Aug-24 23:33N 31°25' E 121°30'8 7.6
2016-Aug-24 22:34N 31°22' E 121°38'1110.7
2016-Aug-24 21:34N 31°17' E 121°50'  
2016-Aug-20 09:10N 31°18' E 121°45'813.4
2016-Aug-20 08:33N 31°22' E 121°37'6 2.9
2016-Aug-20 06:27N 31°25' E 121°30'0 0.0
2016-Aug-20 03:21N 31°25' E 121°30'0 0.0
2016-Aug-20 01:30N 31°25' E 121°30'0 0.0
2016-Aug-20 00:30N 31°25' E 121°30'1 1.5
2016-Aug-19 23:33N 31°24' E 121°32'10 9.6
2016-Aug-19 22:32N 31°20' E 121°42'2611.5
2016-Aug-19 20:16N 31°11' E 122°11'  
2016-Aug-16 09:29N 31°18' E 121°47'1111.9
2016-Aug-16 08:33N 31°23' E 121°36'5 0.6
2016-Aug-16 00:27N 31°25' E 121°30'0 0.0
2016-Aug-15 23:15N 31°25' E 121°30'2 2.3
2016-Aug-15 22:33N 31°24' E 121°32'1110.4
2016-Aug-15 21:33N 31°20' E 121°43'  
Track history (hours):
 
Tides and Currents Weather Stations Pressure Air Temp Water Temp Dewpoint Dewpoint Depression Visibility Wind Speed Wind Dir Waves Ship Positions

Celebrity Century

Last reported at 2016-Aug-25 10:09 UTC. Time now 2016-Aug-26 03:15 UTC.
Position N 31°16' E 121°52'.

Length 252 m; draft 8 m.

Type: Ship. MMSI: 249054000.

Date/timePositionNaut miles runAvg speedWind from/ knotsBaromVisibWave heightAir tempDewpointWater temp
2016-Aug-25 10:09N 31°16' E 121°52'813.9
2016-Aug-25 09:32N 31°19' E 121°43'10 9.7
2016-Aug-25 08:33N 31°24' E 121°33'3 0.6
2016-Aug-25 03:30N 31°25' E 121°30'0 0.0
2016-Aug-25 02:24N 31°25' E 121°30'0 0.0
2016-Aug-25 01:33N 31°25' E 121°30'0 0.0
2016-Aug-25 00:28N 31°25' E 121°30'0 0.0
2016-Aug-24 23:33N 31°25' E 121°30'8 7.6
2016-Aug-24 22:34N 31°22' E 121°38'1110.7
2016-Aug-24 21:34N 31°17' E 121°50'  
2016-Aug-20 09:10N 31°18' E 121°45'813.4
2016-Aug-20 08:33N 31°22' E 121°37'6 2.9
2016-Aug-20 06:27N 31°25' E 121°30'0 0.0
2016-Aug-20 03:21N 31°25' E 121°30'0 0.0
2016-Aug-20 01:30N 31°25' E 121°30'0 0.0
2016-Aug-20 00:30N 31°25' E 121°30'1 1.5
2016-Aug-19 23:33N 31°24' E 121°32'10 9.6
2016-Aug-19 22:32N 31°20' E 121°42'2611.5
2016-Aug-19 20:16N 31°11' E 122°11'  
2016-Aug-16 09:29N 31°18' E 121°47'1111.9
2016-Aug-16 08:33N 31°23' E 121°36'5 0.6
2016-Aug-16 00:27N 31°25' E 121°30'0 0.0
2016-Aug-15 23:15N 31°25' E 121°30'2 2.3
2016-Aug-15 22:33N 31°24' E 121°32'1110.4
2016-Aug-15 21:33N 31°20' E 121°43'  

Dump ship's entire track history